Time;durP1;ratioP1;P1;durP2;ratioP2;P2;SDS_P1;SDS_P2;PMS_P1;PMS_P2;Temp;Humidity;BMP_temperature;BMP_pressure;BME280_temperature;BME280_humidity;BME280_pressure;Samples;Min_cycle;Max_cycle;Signal;HPM_P1;HPM_P2
2022/07/31 00:02:08;;;;;;;60.67;4.90;;;;;;;;;;5113374;28;20815;-66
2022/07/31 00:04:35;;;;;;;60.50;5.00;;;;;;;;;;5113010;28;20481;-66
2022/07/31 00:07:03;;;;;;;59.67;4.13;;;;;;;;;;5112883;28;20835;-66
2022/07/31 00:09:31;;;;;;;62.67;4.67;;;;;;;;;;5112846;28;20441;-66
2022/07/31 00:11:58;;;;;;;60.47;5.10;;;;;;;;;;5112740;28;20462;-66
2022/07/31 00:14:25;;;;;;;59.90;4.70;;;;;;;;;;5112683;28;20956;-66
2022/07/31 00:16:52;;;;;;;60.10;4.73;;;;;;;;;;5112359;28;20442;-66
2022/07/31 00:19:20;;;;;;;61.47;5.20;;;;;;;;;;5112499;28;20453;-66
2022/07/31 00:21:47;;;;;;;60.97;5.00;;;;;;;;;;5112298;28;20883;-66
2022/07/31 00:24:14;;;;;;;61.47;5.10;;;;;;;;;;5112604;28;20480;-66
2022/07/31 00:26:42;;;;;;;60.73;4.73;;;;;;;;;;5112683;28;20445;-66
2022/07/31 00:29:09;;;;;;;60.23;5.30;;;;;;;;;;5112515;28;20449;-66
2022/07/31 00:31:37;;;;;;;60.17;4.93;;;;;;;;;;5112559;28;20475;-66
2022/07/31 00:34:04;;;;;;;61.57;5.87;;;;;;;;;;5112816;28;20438;-66
2022/07/31 00:36:31;;;;;;;60.00;4.20;;;;;;;;;;5115309;28;20437;-66
2022/07/31 00:38:58;;;;;;;60.80;5.30;;;;;;;;;;5115978;28;20445;-66
2022/07/31 00:41:25;;;;;;;60.57;5.60;;;;;;;;;;5116278;28;20472;-66
2022/07/31 00:43:54;;;;;;;62.60;4.83;;;;;;;;;;5116297;28;20481;-66
2022/07/31 00:46:21;;;;;;;60.10;5.10;;;;;;;;;;5116229;28;20453;-66
2022/07/31 00:48:48;;;;;;;60.60;5.10;;;;;;;;;;5115932;28;21029;-66
2022/07/31 00:51:15;;;;;;;61.37;4.90;;;;;;;;;;5115408;28;20560;-66
2022/07/31 00:53:42;;;;;;;61.40;4.97;;;;;;;;;;5115965;28;20456;-66
2022/07/31 00:56:09;;;;;;;60.30;5.30;;;;;;;;;;5115821;28;20441;-66
2022/07/31 00:58:37;;;;;;;60.70;4.77;;;;;;;;;;5115809;27;20449;-66
2022/07/31 01:01:05;;;;;;;60.77;5.10;;;;;;;;;;5115797;27;20586;-66
2022/07/31 01:03:32;;;;;;;60.73;5.10;;;;;;;;;;5115589;28;20468;-66
2022/07/31 01:06:00;;;;;;;60.40;5.00;;;;;;;;;;5115799;27;20456;-66
2022/07/31 01:08:27;;;;;;;61.37;4.87;;;;;;;;;;5115610;28;20532;-66
2022/07/31 01:10:56;;;;;;;60.30;5.13;;;;;;;;;;5115214;28;21023;-66
2022/07/31 01:13:28;;;;;;;61.10;5.17;;;;;;;;;;5115377;28;20540;-66
2022/07/31 01:15:57;;;;;;;60.10;4.73;;;;;;;;;;5115896;28;20786;-66
2022/07/31 01:18:26;;;;;;;61.27;5.40;;;;;;;;;;5115382;28;20445;-66
2022/07/31 01:20:56;;;;;;;60.63;5.00;;;;;;;;;;5114167;28;20548;-66
2022/07/31 01:23:38;;;;;;;60.87;5.40;;;;;;;;;;5115616;28;20449;-66
2022/07/31 01:26:10;;;;;;;60.40;5.03;;;;;;;;;;5115161;28;20441;-66
2022/07/31 01:28:46;;;;;;;60.37;4.87;;;;;;;;;;5114982;28;20429;-66
2022/07/31 01:31:14;;;;;;;66.20;6.10;;;;;;;;;;5115094;28;20469;-66
2022/07/31 01:33:43;;;;;;;60.70;5.30;;;;;;;;;;5115573;28;20450;-66
2022/07/31 01:36:14;;;;;;;61.40;5.33;;;;;;;;;;5115236;28;20457;-66
2022/07/31 01:38:44;;;;;;;61.03;5.70;;;;;;;;;;5114875;28;20448;-66
2022/07/31 01:41:12;;;;;;;60.20;4.40;;;;;;;;;;5114987;28;20458;-66
2022/07/31 01:43:40;;;;;;;60.63;5.57;;;;;;;;;;5115269;28;20449;-66
2022/07/31 01:46:11;;;;;;;61.53;6.10;;;;;;;;;;5115000;28;20850;-66
2022/07/31 01:48:38;;;;;;;60.00;4.90;;;;;;;;;;5114119;28;20442;-66
2022/07/31 01:51:07;;;;;;;60.80;5.60;;;;;;;;;;5114893;27;20477;-66
2022/07/31 01:53:35;;;;;;;60.80;5.00;;;;;;;;;;5114861;28;20452;-66
2022/07/31 01:56:03;;;;;;;62.20;5.17;;;;;;;;;;5114392;27;20941;-66
2022/07/31 01:58:32;;;;;;;61.57;5.30;;;;;;;;;;5114668;28;20448;-66
2022/07/31 02:01:01;;;;;;;61.97;5.30;;;;;;;;;;5114558;28;20461;-66
2022/07/31 02:03:30;;;;;;;61.47;5.33;;;;;;;;;;5114614;28;20460;-66
2022/07/31 02:05:59;;;;;;;61.87;5.77;;;;;;;;;;5114308;28;21028;-66
2022/07/31 02:08:27;;;;;;;64.63;5.70;;;;;;;;;;5114198;27;20441;-66
2022/07/31 02:10:55;;;;;;;60.17;5.60;;;;;;;;;;5114170;28;20469;-66
2022/07/31 02:13:22;;;;;;;61.40;4.77;;;;;;;;;;5114743;27;20511;-66
2022/07/31 02:15:50;;;;;;;61.27;5.20;;;;;;;;;;5114557;28;20820;-66
2022/07/31 02:18:19;;;;;;;60.20;5.07;;;;;;;;;;5114257;28;20917;-66
2022/07/31 02:20:50;;;;;;;64.30;4.83;;;;;;;;;;5114152;28;20474;-66
2022/07/31 02:23:17;;;;;;;60.33;4.90;;;;;;;;;;5114152;28;20475;-66
2022/07/31 02:25:45;;;;;;;61.63;5.40;;;;;;;;;;5114081;28;20485;-66
2022/07/31 02:28:14;;;;;;;60.40;4.80;;;;;;;;;;5114005;28;20448;-66
2022/07/31 02:30:42;;;;;;;61.53;5.60;;;;;;;;;;5113823;28;20985;-66
2022/07/31 02:33:12;;;;;;;60.67;5.10;;;;;;;;;;5113729;28;20448;-66
2022/07/31 02:35:40;;;;;;;61.70;4.90;;;;;;;;;;5113888;28;20813;-66
2022/07/31 02:38:09;;;;;;;61.20;5.17;;;;;;;;;;5114244;27;20460;-66
2022/07/31 02:40:37;;;;;;;61.87;5.93;;;;;;;;;;5113858;28;20567;-66
2022/07/31 02:43:04;;;;;;;60.83;5.53;;;;;;;;;;5113914;28;20822;-66
2022/07/31 02:45:32;;;;;;;60.80;4.70;;;;;;;;;;5113894;28;20843;-66
2022/07/31 02:47:59;;;;;;;60.57;5.47;;;;;;;;;;5113421;28;20441;-66
2022/07/31 02:50:26;;;;;;;61.17;5.53;;;;;;;;;;5113644;28;20470;-66
2022/07/31 02:52:53;;;;;;;61.20;5.80;;;;;;;;;;5113869;28;20446;-66
2022/07/31 02:55:22;;;;;;;60.67;5.33;;;;;;;;;;5113865;28;20929;-66
2022/07/31 02:57:50;;;;;;;62.07;5.73;;;;;;;;;;5113444;28;20452;-66
2022/07/31 03:00:22;;;;;;;61.47;5.33;;;;;;;;;;5113252;28;20520;-66
2022/07/31 03:02:49;;;;;;;61.27;5.70;;;;;;;;;;5113628;28;20452;-66
2022/07/31 03:05:17;;;;;;;61.17;5.40;;;;;;;;;;5113615;28;20473;-66
2022/07/31 03:07:44;;;;;;;62.00;5.00;;;;;;;;;;5113446;28;20951;-66
2022/07/31 03:10:11;;;;;;;60.07;4.70;;;;;;;;;;5113095;28;20476;-66
2022/07/31 03:12:41;;;;;;;60.90;5.53;;;;;;;;;;5113326;28;20926;-66
2022/07/31 03:15:09;;;;;;;61.70;5.20;;;;;;;;;;5113655;28;20788;-66
2022/07/31 03:17:37;;;;;;;61.40;5.67;;;;;;;;;;5113765;28;20449;-66
2022/07/31 03:20:05;;;;;;;60.70;5.20;;;;;;;;;;5113037;28;20476;-66
2022/07/31 03:22:33;;;;;;;65.33;5.77;;;;;;;;;;5113560;28;20438;-66
2022/07/31 03:25:01;;;;;;;61.20;5.50;;;;;;;;;;5113241;28;20477;-67
2022/07/31 03:27:28;;;;;;;60.73;5.50;;;;;;;;;;5113685;28;20449;-66
2022/07/31 03:29:56;;;;;;;60.00;4.90;;;;;;;;;;5113214;28;20470;-66
2022/07/31 03:32:24;;;;;;;60.73;6.13;;;;;;;;;;5113267;28;20441;-66
2022/07/31 03:34:51;;;;;;;61.83;5.50;;;;;;;;;;5113492;28;20441;-66
2022/07/31 03:37:18;;;;;;;66.43;6.13;;;;;;;;;;5113823;28;20469;-66
2022/07/31 03:39:45;;;;;;;62.57;5.73;;;;;;;;;;5113277;28;20445;-66
2022/07/31 03:42:12;;;;;;;61.10;5.33;;;;;;;;;;5113155;28;20523;-66
2022/07/31 03:44:41;;;;;;;60.90;5.50;;;;;;;;;;5113421;28;20480;-66
2022/07/31 03:47:09;;;;;;;60.80;5.87;;;;;;;;;;5113123;28;20529;-66
2022/07/31 03:49:36;;;;;;;60.67;5.53;;;;;;;;;;5112723;28;20457;-66
2022/07/31 03:52:04;;;;;;;60.93;5.73;;;;;;;;;;5113040;28;20441;-66
2022/07/31 03:54:31;;;;;;;61.10;5.10;;;;;;;;;;5112889;28;20445;-66
2022/07/31 03:56:59;;;;;;;60.87;5.03;;;;;;;;;;5112695;28;20452;-66
2022/07/31 03:59:26;;;;;;;60.70;5.60;;;;;;;;;;5112980;28;20453;-66
2022/07/31 04:01:54;;;;;;;60.97;5.20;;;;;;;;;;5112874;28;20472;-66
2022/07/31 04:04:22;;;;;;;63.43;5.50;;;;;;;;;;5113230;28;20816;-66
2022/07/31 04:06:49;;;;;;;61.43;5.27;;;;;;;;;;5112803;28;20446;-66
2022/07/31 04:09:16;;;;;;;60.77;4.80;;;;;;;;;;5112723;28;20825;-66
2022/07/31 04:11:43;;;;;;;61.17;5.97;;;;;;;;;;5116084;28;20538;-66
2022/07/31 04:14:10;;;;;;;63.00;6.50;;;;;;;;;;5117195;28;20839;-66
2022/07/31 04:16:37;;;;;;;60.47;5.50;;;;;;;;;;5116743;27;20437;-66
2022/07/31 04:19:05;;;;;;;60.60;5.23;;;;;;;;;;5116891;28;20529;-66
2022/07/31 04:21:33;;;;;;;62.70;6.30;;;;;;;;;;5116232;28;20479;-66
2022/07/31 04:24:00;;;;;;;60.90;5.50;;;;;;;;;;5116877;28;20437;-66
2022/07/31 04:26:29;;;;;;;59.67;4.73;;;;;;;;;;5116630;28;20787;-66
2022/07/31 04:28:56;;;;;;;61.13;5.17;;;;;;;;;;5116871;28;20448;-66
2022/07/31 04:31:23;;;;;;;60.30;5.20;;;;;;;;;;5116188;28;20461;-66
2022/07/31 04:33:50;;;;;;;60.80;5.30;;;;;;;;;;5116347;28;20501;-66
2022/07/31 04:36:17;;;;;;;61.10;5.80;;;;;;;;;;5116179;28;20433;-66
2022/07/31 04:38:46;;;;;;;61.07;5.57;;;;;;;;;;5116590;28;20453;-66
2022/07/31 04:41:13;;;;;;;61.40;5.27;;;;;;;;;;5116456;28;20473;-66
2022/07/31 04:43:40;;;;;;;60.87;5.67;;;;;;;;;;5116270;28;20484;-66
2022/07/31 04:46:07;;;;;;;60.57;5.53;;;;;;;;;;5116260;28;20483;-66
2022/07/31 04:48:34;;;;;;;60.80;4.60;;;;;;;;;;5116238;28;20451;-66
2022/07/31 04:51:02;;;;;;;80.57;6.63;;;;;;;;;;5116092;28;20503;-66
2022/07/31 04:53:29;;;;;;;60.50;5.10;;;;;;;;;;5116090;28;20448;-66
2022/07/31 04:58:43;;;;;;;60.57;5.63;;;;;;;;;;5115713;28;20424;-66
2022/07/31 05:01:10;;;;;;;60.33;5.03;;;;;;;;;;5115500;28;20465;-66
2022/07/31 05:03:37;;;;;;;62.03;6.00;;;;;;;;;;5115454;28;20957;-66
2022/07/31 05:06:10;;;;;;;60.43;5.00;;;;;;;;;;5116000;28;20568;-66
2022/07/31 05:08:37;;;;;;;61.10;5.53;;;;;;;;;;5115371;28;20441;-66
2022/07/31 05:11:25;;;;;;;60.87;5.10;;;;;;;;;;5115237;28;20991;-66
2022/07/31 05:13:53;;;;;;;60.40;4.80;;;;;;;;;;5115685;28;20537;-66
2022/07/31 05:16:20;;;;;;;60.47;5.17;;;;;;;;;;5115713;28;20437;-66
2022/07/31 05:18:47;;;;;;;61.73;5.50;;;;;;;;;;5115603;28;20446;-66
2022/07/31 05:21:15;;;;;;;59.10;4.53;;;;;;;;;;5115455;28;20458;-66
2022/07/31 05:23:42;;;;;;;60.90;5.47;;;;;;;;;;5115402;28;20441;-66
2022/07/31 05:26:11;;;;;;;60.67;4.87;;;;;;;;;;5114951;27;21022;-66
2022/07/31 05:28:39;;;;;;;60.80;5.27;;;;;;;;;;5114872;28;20452;-66
2022/07/31 05:31:07;;;;;;;59.67;4.57;;;;;;;;;;5115034;28;20468;-66
2022/07/31 05:33:34;;;;;;;59.83;4.70;;;;;;;;;;5115063;28;20450;-66
2022/07/31 05:36:01;;;;;;;60.00;4.30;;;;;;;;;;5114899;28;20440;-66
2022/07/31 05:38:29;;;;;;;60.80;5.40;;;;;;;;;;5114653;28;20825;-66
2022/07/31 05:40:56;;;;;;;59.70;4.93;;;;;;;;;;5114474;28;20470;-66
2022/07/31 05:43:24;;;;;;;60.33;4.60;;;;;;;;;;5114504;28;20971;-66
2022/07/31 05:45:51;;;;;;;60.20;4.30;;;;;;;;;;5114571;28;20481;-66
2022/07/31 05:48:19;;;;;;;60.17;4.80;;;;;;;;;;5114516;28;20450;-66
2022/07/31 05:50:46;;;;;;;60.33;4.70;;;;;;;;;;5114207;28;20484;-67
2022/07/31 05:53:14;;;;;;;59.90;3.80;;;;;;;;;;5114428;28;20456;-66
2022/07/31 05:55:41;;;;;;;59.37;3.83;;;;;;;;;;5114318;28;20488;-66
2022/07/31 05:58:08;;;;;;;59.50;3.73;;;;;;;;;;5114464;28;20450;-66
2022/07/31 06:00:37;;;;;;;59.50;4.20;;;;;;;;;;5114402;28;20487;-66
2022/07/31 06:03:04;;;;;;;60.20;3.90;;;;;;;;;;5114165;28;20536;-66
2022/07/31 06:05:32;;;;;;;60.43;4.30;;;;;;;;;;5114439;28;20473;-66
2022/07/31 06:07:59;;;;;;;59.10;3.90;;;;;;;;;;5113794;28;20953;-66
2022/07/31 06:10:26;;;;;;;59.70;4.40;;;;;;;;;;5113760;28;20472;-66
2022/07/31 06:12:54;;;;;;;59.57;3.93;;;;;;;;;;5113902;28;20452;-66
2022/07/31 06:15:21;;;;;;;59.97;4.07;;;;;;;;;;5114205;28;20468;-66
2022/07/31 06:17:50;;;;;;;59.20;4.00;;;;;;;;;;5114283;28;20493;-66
2022/07/31 06:20:17;;;;;;;59.50;3.77;;;;;;;;;;5113978;28;20476;-67
2022/07/31 06:22:44;;;;;;;59.20;3.60;;;;;;;;;;5113723;28;20821;-66
2022/07/31 06:25:11;;;;;;;59.37;4.00;;;;;;;;;;5113664;27;20945;-66
2022/07/31 06:27:40;;;;;;;60.73;4.53;;;;;;;;;;5113616;28;20445;-66
2022/07/31 06:30:08;;;;;;;59.67;4.53;;;;;;;;;;5113452;28;20475;-66
2022/07/31 06:32:35;;;;;;;59.50;3.70;;;;;;;;;;5113354;28;20444;-66
2022/07/31 06:35:04;;;;;;;59.37;4.00;;;;;;;;;;5113381;28;20444;-66
2022/07/31 06:37:32;;;;;;;59.07;3.80;;;;;;;;;;5113554;28;20442;-66
2022/07/31 06:39:59;;;;;;;59.17;3.87;;;;;;;;;;5113571;28;20470;-66
2022/07/31 06:42:26;;;;;;;59.47;3.90;;;;;;;;;;5113447;28;20442;-67
2022/07/31 06:44:54;;;;;;;60.00;4.10;;;;;;;;;;5113208;28;20444;-66
2022/07/31 06:47:22;;;;;;;58.97;3.60;;;;;;;;;;5113386;28;20483;-67
2022/07/31 06:49:49;;;;;;;60.03;4.07;;;;;;;;;;5112871;28;20465;-67
2022/07/31 06:52:17;;;;;;;59.27;4.03;;;;;;;;;;5113258;28;20449;-66
2022/07/31 06:54:45;;;;;;;59.40;4.00;;;;;;;;;;5113434;28;20447;-66
2022/07/31 06:57:12;;;;;;;58.90;3.60;;;;;;;;;;5113001;28;20438;-67
2022/07/31 06:59:39;;;;;;;59.30;3.80;;;;;;;;;;5113243;28;20439;-66
2022/07/31 07:02:06;;;;;;;59.20;3.60;;;;;;;;;;5113374;28;20450;-67
2022/07/31 07:04:33;;;;;;;59.13;3.50;;;;;;;;;;5113218;28;20809;-67
2022/07/31 07:07:00;;;;;;;59.60;3.70;;;;;;;;;;5113050;28;20491;-67
2022/07/31 07:09:29;;;;;;;58.57;3.07;;;;;;;;;;5113077;28;20454;-66
2022/07/31 07:11:56;;;;;;;59.37;3.90;;;;;;;;;;5112696;28;20469;-67
2022/07/31 07:14:24;;;;;;;59.53;3.53;;;;;;;;;;5112891;28;20915;-67
2022/07/31 07:16:51;;;;;;;58.67;3.40;;;;;;;;;;5112854;28;20530;-67
2022/07/31 07:19:18;;;;;;;58.17;3.40;;;;;;;;;;5112870;28;20445;-67
2022/07/31 07:21:45;;;;;;;58.80;3.40;;;;;;;;;;5113274;28;20473;-67
2022/07/31 07:24:12;;;;;;;58.90;3.80;;;;;;;;;;5113162;28;20448;-67
2022/07/31 07:26:40;;;;;;;58.40;3.00;;;;;;;;;;5113055;28;20476;-66
2022/07/31 07:29:09;;;;;;;61.13;3.67;;;;;;;;;;5113089;28;20454;-67
2022/07/31 07:31:36;;;;;;;58.10;3.13;;;;;;;;;;5112888;28;20501;-67
2022/07/31 07:34:05;;;;;;;58.70;3.57;;;;;;;;;;5112943;28;20448;-67
2022/07/31 07:36:32;;;;;;;58.80;3.43;;;;;;;;;;5113027;28;20478;-67
2022/07/31 07:38:59;;;;;;;59.40;3.67;;;;;;;;;;5113036;28;20856;-66
2022/07/31 07:41:26;;;;;;;58.83;3.67;;;;;;;;;;5112886;28;20465;-67
2022/07/31 07:43:55;;;;;;;59.30;3.40;;;;;;;;;;5112942;28;20860;-67
2022/07/31 07:46:23;;;;;;;58.47;3.17;;;;;;;;;;5116090;28;20859;-66
2022/07/31 07:48:50;;;;;;;59.80;3.63;;;;;;;;;;5117530;28;20441;-67
2022/07/31 07:51:17;;;;;;;58.67;3.33;;;;;;;;;;5117236;28;20481;-67
2022/07/31 07:53:44;;;;;;;58.80;3.47;;;;;;;;;;5118024;28;20514;-67
2022/07/31 07:56:11;;;;;;;58.83;3.30;;;;;;;;;;5117446;28;20452;-66
2022/07/31 07:58:39;;;;;;;58.37;3.10;;;;;;;;;;5117070;28;20945;-67
2022/07/31 08:01:08;;;;;;;59.67;3.70;;;;;;;;;;5117616;28;20510;-67
2022/07/31 08:03:35;;;;;;;58.77;3.17;;;;;;;;;;5117459;28;20528;-67
2022/07/31 08:06:02;;;;;;;58.97;3.70;;;;;;;;;;5117764;28;20823;-67
2022/07/31 08:08:29;;;;;;;60.93;3.73;;;;;;;;;;5117508;28;20441;-67
2022/07/31 08:10:56;;;;;;;58.57;3.10;;;;;;;;;;5117133;28;21007;-67
2022/07/31 08:13:24;;;;;;;59.07;3.60;;;;;;;;;;5117460;28;20477;-67
2022/07/31 08:15:51;;;;;;;58.50;3.00;;;;;;;;;;5117592;28;20444;-67
2022/07/31 08:18:20;;;;;;;61.00;3.67;;;;;;;;;;5117790;28;20448;-67
2022/07/31 08:20:47;;;;;;;58.70;3.40;;;;;;;;;;5117278;27;20501;-66
2022/07/31 08:23:14;;;;;;;58.57;3.07;;;;;;;;;;5117310;28;20822;-67
2022/07/31 08:25:41;;;;;;;58.60;3.17;;;;;;;;;;5117026;28;20449;-67
2022/07/31 08:28:08;;;;;;;58.40;2.90;;;;;;;;;;5116981;28;20496;-67
2022/07/31 08:30:35;;;;;;;59.00;3.33;;;;;;;;;;5116822;28;20465;-67
2022/07/31 08:33:02;;;;;;;58.70;3.43;;;;;;;;;;5115861;28;20517;-67
2022/07/31 08:35:31;;;;;;;58.40;3.63;;;;;;;;;;5116089;28;20960;-67
2022/07/31 08:37:58;;;;;;;58.80;3.20;;;;;;;;;;5116381;28;20943;-67
2022/07/31 08:40:25;;;;;;;59.67;3.03;;;;;;;;;;5116512;28;20480;-67
2022/07/31 08:42:52;;;;;;;58.80;3.07;;;;;;;;;;5116449;27;20445;-67
2022/07/31 08:45:20;;;;;;;58.40;3.10;;;;;;;;;;5116304;28;20456;-67
2022/07/31 08:47:48;;;;;;;58.40;2.90;;;;;;;;;;5116550;27;20477;-67
2022/07/31 08:50:16;;;;;;;58.80;3.53;;;;;;;;;;5116144;28;20884;-67
2022/07/31 08:52:45;;;;;;;58.70;3.10;;;;;;;;;;5116103;28;20485;-67
2022/07/31 08:55:13;;;;;;;58.57;2.93;;;;;;;;;;5116343;28;20442;-67
2022/07/31 08:57:40;;;;;;;58.60;2.80;;;;;;;;;;5115691;28;20445;-67
2022/07/31 09:00:08;;;;;;;58.77;3.13;;;;;;;;;;5115765;28;20465;-66
2022/07/31 09:02:35;;;;;;;59.07;3.40;;;;;;;;;;5116141;28;20448;-67
2022/07/31 09:05:03;;;;;;;58.70;3.00;;;;;;;;;;5115724;28;20448;-67
2022/07/31 09:07:31;;;;;;;59.87;3.20;;;;;;;;;;5115763;28;20576;-67
2022/07/31 09:09:59;;;;;;;58.90;3.17;;;;;;;;;;5115484;28;20469;-66
2022/07/31 09:12:31;;;;;;;58.50;2.50;;;;;;;;;;5115198;28;20465;-67
2022/07/31 09:14:58;;;;;;;58.67;2.73;;;;;;;;;;5115117;28;20532;-67
2022/07/31 09:17:32;;;;;;;59.10;2.97;;;;;;;;;;5115649;28;20448;-67
2022/07/31 09:20:00;;;;;;;58.50;3.10;;;;;;;;;;5115210;28;20642;-67
2022/07/31 09:22:28;;;;;;;58.60;3.07;;;;;;;;;;5115565;28;20453;-67
2022/07/31 09:24:55;;;;;;;58.57;2.93;;;;;;;;;;5115443;28;20536;-67
2022/07/31 09:27:29;;;;;;;58.67;3.37;;;;;;;;;;5115676;28;20695;-67
2022/07/31 09:29:57;;;;;;;58.70;3.30;;;;;;;;;;5114955;27;20812;-67
2022/07/31 09:32:24;;;;;;;59.10;3.00;;;;;;;;;;5115537;28;20590;-67
2022/07/31 09:34:51;;;;;;;58.80;3.30;;;;;;;;;;5115184;28;20446;-67
2022/07/31 09:37:19;;;;;;;60.47;4.00;;;;;;;;;;5115574;28;20441;-67
2022/07/31 09:39:50;;;;;;;58.40;2.70;;;;;;;;;;5114947;28;20445;-67
2022/07/31 09:42:17;;;;;;;58.60;2.90;;;;;;;;;;5115256;28;20449;-67
2022/07/31 09:44:46;;;;;;;58.17;2.60;;;;;;;;;;5115305;28;20442;-67
2022/07/31 09:47:21;;;;;;;58.07;3.00;;;;;;;;;;5114622;28;21030;-67
2022/07/31 09:49:53;;;;;;;58.07;2.90;;;;;;;;;;5114459;28;20472;-67
2022/07/31 09:52:20;;;;;;;58.20;3.50;;;;;;;;;;5115335;28;20445;-67
2022/07/31 09:54:48;;;;;;;59.40;3.17;;;;;;;;;;5114606;28;20953;-67
2022/07/31 09:57:16;;;;;;;58.37;3.03;;;;;;;;;;5114708;28;20491;-67
2022/07/31 09:59:44;;;;;;;58.20;2.70;;;;;;;;;;5114573;28;20812;-67
2022/07/31 10:02:14;;;;;;;58.20;2.80;;;;;;;;;;5114650;28;20446;-67
2022/07/31 10:04:43;;;;;;;57.77;2.30;;;;;;;;;;5114316;28;20441;-67
2022/07/31 10:07:11;;;;;;;58.07;2.47;;;;;;;;;;5114030;28;20840;-67
2022/07/31 10:09:40;;;;;;;62.43;2.60;;;;;;;;;;5113129;28;20808;-67
2022/07/31 10:12:10;;;;;;;58.03;2.40;;;;;;;;;;5114366;28;20445;-67
2022/07/31 10:14:40;;;;;;;58.70;2.73;;;;;;;;;;5114678;28;20434;-67
2022/07/31 10:17:07;;;;;;;58.10;3.10;;;;;;;;;;5114147;28;20518;-67
2022/07/31 10:19:38;;;;;;;58.10;2.87;;;;;;;;;;5113881;28;20972;-67
2022/07/31 10:22:05;;;;;;;58.47;3.00;;;;;;;;;;5114015;28;20521;-67
2022/07/31 10:24:33;;;;;;;57.37;2.40;;;;;;;;;;5114277;28;20528;-67
2022/07/31 10:27:01;;;;;;;57.77;2.60;;;;;;;;;;5113666;28;20572;-67
2022/07/31 10:29:28;;;;;;;57.50;2.40;;;;;;;;;;5113528;28;20444;-67
2022/07/31 10:31:55;;;;;;;57.07;2.30;;;;;;;;;;5113488;28;20497;-68
2022/07/31 10:34:22;;;;;;;57.80;2.57;;;;;;;;;;5113562;28;20976;-68
2022/07/31 10:36:54;;;;;;;58.67;2.20;;;;;;;;;;5113941;28;20448;-68
2022/07/31 10:39:27;;;;;;;57.20;2.40;;;;;;;;;;5113374;28;20520;-67
2022/07/31 10:41:57;;;;;;;73.80;2.70;;;;;;;;;;5113285;28;20560;-67
2022/07/31 10:44:31;;;;;;;57.10;2.10;;;;;;;;;;5113341;28;20464;-68
2022/07/31 10:46:58;;;;;;;56.93;2.40;;;;;;;;;;5113275;27;20481;-68
2022/07/31 10:49:38;;;;;;;57.77;2.40;;;;;;;;;;5112906;28;20556;-68
2022/07/31 10:52:07;;;;;;;57.43;2.60;;;;;;;;;;5113104;28;20452;-68
2022/07/31 10:54:41;;;;;;;56.90;2.40;;;;;;;;;;5113888;28;20477;-68
2022/07/31 10:57:09;;;;;;;56.60;2.03;;;;;;;;;;5113096;28;21029;-68
2022/07/31 10:59:37;;;;;;;57.27;3.00;;;;;;;;;;5112951;28;20520;-68
2022/07/31 11:02:04;;;;;;;57.77;2.40;;;;;;;;;;5113161;28;20528;-68
2022/07/31 11:04:32;;;;;;;56.60;2.27;;;;;;;;;;5113033;28;20445;-68
2022/07/31 11:06:59;;;;;;;56.40;2.63;;;;;;;;;;5113060;28;20572;-68
2022/07/31 11:09:29;;;;;;;57.20;2.57;;;;;;;;;;5113099;28;20458;-68
2022/07/31 11:11:57;;;;;;;57.27;2.70;;;;;;;;;;5112962;28;20461;-68
2022/07/31 11:14:34;;;;;;;57.03;3.10;;;;;;;;;;5112897;28;20460;-68
2022/07/31 11:17:01;;;;;;;56.80;2.33;;;;;;;;;;5112822;28;20441;-68
2022/07/31 11:19:38;;;;;;;57.20;2.63;;;;;;;;;;5112659;28;20450;-68
2022/07/31 11:22:10;;;;;;;56.47;2.10;;;;;;;;;;5113065;28;20432;-68
2022/07/31 11:24:39;;;;;;;56.43;2.10;;;;;;;;;;5112735;28;20445;-68
2022/07/31 11:27:06;;;;;;;56.60;2.20;;;;;;;;;;5112820;28;20505;-68
2022/07/31 11:29:34;;;;;;;58.00;2.83;;;;;;;;;;5112549;28;20536;-68
2022/07/31 11:32:12;;;;;;;56.60;2.40;;;;;;;;;;5112891;28;20457;-68
2022/07/31 11:34:45;;;;;;;57.30;2.47;;;;;;;;;;5112530;28;20941;-68
2022/07/31 11:37:14;;;;;;;56.67;2.10;;;;;;;;;;5112290;28;20448;-68
2022/07/31 11:39:43;;;;;;;57.00;2.20;;;;;;;;;;5112530;28;20519;-68
2022/07/31 11:42:11;;;;;;;58.97;2.60;;;;;;;;;;5112518;28;20448;-68
2022/07/31 11:44:38;;;;;;;58.13;2.77;;;;;;;;;;5112329;28;20881;-68
2022/07/31 11:47:05;;;;;;;57.03;2.30;;;;;;;;;;5112273;28;20468;-68
2022/07/31 11:49:35;;;;;;;57.37;2.43;;;;;;;;;;5112103;28;20465;-68
2022/07/31 11:52:02;;;;;;;57.00;2.50;;;;;;;;;;5112566;28;20866;-68
2022/07/31 11:54:29;;;;;;;57.17;2.70;;;;;;;;;;5112183;28;20449;-68
2022/07/31 11:56:58;;;;;;;56.70;2.33;;;;;;;;;;5112365;28;20434;-68
2022/07/31 11:59:31;;;;;;;56.57;2.27;;;;;;;;;;5111998;28;20446;-68
2022/07/31 12:02:05;;;;;;;57.20;2.80;;;;;;;;;;5112076;28;20829;-67
2022/07/31 12:04:35;;;;;;;56.77;2.40;;;;;;;;;;5112216;28;20449;-68
2022/07/31 12:07:02;;;;;;;56.87;2.17;;;;;;;;;;5111852;28;20514;-68
2022/07/31 12:09:29;;;;;;;56.70;2.20;;;;;;;;;;5112045;28;20441;-68
2022/07/31 12:11:58;;;;;;;57.10;2.40;;;;;;;;;;5111852;28;20899;-67
2022/07/31 12:14:29;;;;;;;58.50;3.33;;;;;;;;;;5112199;28;20445;-67
2022/07/31 12:16:56;;;;;;;57.30;2.30;;;;;;;;;;5111833;28;20974;-67
2022/07/31 12:19:27;;;;;;;57.50;2.37;;;;;;;;;;5111595;28;20532;-67
2022/07/31 12:21:55;;;;;;;57.53;2.20;;;;;;;;;;5111882;28;20536;-68
2022/07/31 12:24:22;;;;;;;59.60;3.27;;;;;;;;;;5112034;28;20437;-68
2022/07/31 12:26:50;;;;;;;58.40;3.00;;;;;;;;;;5111956;28;20437;-68
2022/07/31 12:29:19;;;;;;;57.80;2.50;;;;;;;;;;5111540;28;21012;-68
2022/07/31 12:31:48;;;;;;;58.20;3.03;;;;;;;;;;5113474;28;20496;-68
2022/07/31 12:34:25;;;;;;;57.67;2.50;;;;;;;;;;5115622;28;20452;-67
2022/07/31 12:36:57;;;;;;;57.90;2.60;;;;;;;;;;5115707;28;20550;-67
2022/07/31 12:39:25;;;;;;;57.80;2.70;;;;;;;;;;5115338;28;20437;-67
2022/07/31 12:41:52;;;;;;;57.70;2.13;;;;;;;;;;5115300;28;20465;-68
2022/07/31 12:44:20;;;;;;;58.20;2.63;;;;;;;;;;5115624;28;20534;-68
2022/07/31 12:46:48;;;;;;;63.27;2.40;;;;;;;;;;5115573;28;20760;-68
2022/07/31 12:49:15;;;;;;;57.57;2.30;;;;;;;;;;5114989;27;20866;-68
2022/07/31 12:51:42;;;;;;;57.40;2.40;;;;;;;;;;5115175;28;21031;-68
2022/07/31 12:54:10;;;;;;;57.07;2.30;;;;;;;;;;5115165;28;20725;-68
2022/07/31 12:56:38;;;;;;;57.40;2.60;;;;;;;;;;5115380;28;20533;-68
2022/07/31 12:59:05;;;;;;;57.17;2.17;;;;;;;;;;5114888;28;20958;-68
2022/07/31 13:01:34;;;;;;;59.80;2.90;;;;;;;;;;5115294;28;20469;-68
2022/07/31 13:04:02;;;;;;;57.70;2.93;;;;;;;;;;5115166;28;20445;-68
2022/07/31 13:06:29;;;;;;;57.27;2.50;;;;;;;;;;5115017;27;20929;-68
2022/07/31 13:08:57;;;;;;;57.57;2.30;;;;;;;;;;5114558;28;20487;-68
2022/07/31 13:11:25;;;;;;;58.13;2.97;;;;;;;;;;5114965;28;20472;-67
2022/07/31 13:13:55;;;;;;;57.47;2.17;;;;;;;;;;5115028;28;20449;-68
2022/07/31 13:16:22;;;;;;;57.53;2.50;;;;;;;;;;5115159;28;20438;-67
2022/07/31 13:18:51;;;;;;;57.47;2.17;;;;;;;;;;5114916;28;20440;-68
2022/07/31 13:21:18;;;;;;;57.07;2.37;;;;;;;;;;5114477;28;20472;-68
2022/07/31 13:23:45;;;;;;;57.17;2.40;;;;;;;;;;5114750;27;20445;-66
2022/07/31 13:26:12;;;;;;;57.10;2.23;;;;;;;;;;5114829;28;20446;-68
2022/07/31 13:28:39;;;;;;;56.97;2.17;;;;;;;;;;5114495;28;20485;-68
2022/07/31 13:31:06;;;;;;;56.97;2.10;;;;;;;;;;5114371;28;20470;-68
2022/07/31 13:33:33;;;;;;;57.07;1.93;;;;;;;;;;5114529;28;20438;-68
2022/07/31 13:36:02;;;;;;;57.20;2.30;;;;;;;;;;5114688;28;20471;-68
2022/07/31 13:38:29;;;;;;;57.20;2.40;;;;;;;;;;5114613;28;20444;-68
2022/07/31 13:43:41;;;;;;;56.97;2.40;;;;;;;;;;5113193;28;20517;-68
2022/07/31 13:46:08;;;;;;;57.47;2.67;;;;;;;;;;5114241;28;20441;-68
2022/07/31 13:48:35;;;;;;;56.97;2.20;;;;;;;;;;5113842;28;20481;-66
2022/07/31 13:51:03;;;;;;;56.97;2.60;;;;;;;;;;5114091;28;20992;-66
2022/07/31 13:53:31;;;;;;;57.00;2.30;;;;;;;;;;5114149;28;20445;-66
2022/07/31 13:55:59;;;;;;;56.60;2.03;;;;;;;;;;5114331;28;20457;-66
2022/07/31 13:58:27;;;;;;;57.30;2.60;;;;;;;;;;5114358;28;20430;-68
2022/07/31 14:00:54;;;;;;;57.00;2.40;;;;;;;;;;5113728;28;20473;-68
2022/07/31 14:03:21;;;;;;;57.97;2.40;;;;;;;;;;5114292;28;20840;-68
2022/07/31 14:05:48;;;;;;;56.93;2.23;;;;;;;;;;5114092;28;20449;-68
2022/07/31 14:08:17;;;;;;;57.37;2.47;;;;;;;;;;5113716;28;20484;-68
2022/07/31 14:10:44;;;;;;;56.87;2.60;;;;;;;;;;5113538;28;20989;-68
2022/07/31 14:13:11;;;;;;;56.80;2.10;;;;;;;;;;5113912;28;20445;-68
2022/07/31 14:15:39;;;;;;;56.97;2.40;;;;;;;;;;5113595;28;20448;-68
2022/07/31 14:18:06;;;;;;;57.07;2.20;;;;;;;;;;5113456;28;20441;-68
2022/07/31 14:20:33;;;;;;;57.07;2.47;;;;;;;;;;5113459;28;20488;-68
2022/07/31 14:23:01;;;;;;;58.10;2.17;;;;;;;;;;5113685;28;20448;-67
2022/07/31 14:25:30;;;;;;;56.77;2.23;;;;;;;;;;5113501;28;20452;-68
2022/07/31 14:27:57;;;;;;;56.67;2.27;;;;;;;;;;5113346;28;20449;-68
2022/07/31 14:30:24;;;;;;;57.37;2.23;;;;;;;;;;5113164;28;20764;-68
2022/07/31 14:32:51;;;;;;;57.37;3.13;;;;;;;;;;5113565;28;20452;-68
2022/07/31 14:35:18;;;;;;;56.73;2.00;;;;;;;;;;5113793;28;20449;-68
2022/07/31 14:37:46;;;;;;;57.10;2.40;;;;;;;;;;5113673;28;20910;-68
2022/07/31 14:40:14;;;;;;;57.17;2.30;;;;;;;;;;5112948;27;20472;-68
2022/07/31 14:42:42;;;;;;;57.17;2.00;;;;;;;;;;5113141;28;20445;-68